MST,Max TemperatureF,Mean TemperatureF,Min TemperatureF,Max Dew PointF,MeanDew PointF,Min DewpointF,Max Humidity, Mean Humidity, Min Humidity, Max Sea Level PressureIn, Mean Sea Level PressureIn, Min Sea Level PressureIn, Max VisibilityMiles, Mean VisibilityMiles, Min VisibilityMiles, Max Wind SpeedMPH, Mean Wind SpeedMPH, Max Gust SpeedMPH,PrecipitationIn, CloudCover, Events, WindDirDegrees
2013-5-1,95,82,68,51,37,2,52,28,4,29.96,29.85,29.69,10,10,10,24,9,28,0.00,0,,149
2013-5-2,92,81,70,23,8,-1,15,10,4,30.14,30.04,29.97,10,10,8,26,14,38,0.00,0,,351
2013-5-3,97,82,67,35,18,8,17,11,4,29.96,29.84,29.72,10,10,8,21,8,26,0.00,5,,31
2013-5-4,98,82,66,51,33,21,39,23,7,29.71,29.66,29.58,10,10,8,21,8,24,0.00,3,,172
2013-5-5,90,78,65,47,36,25,52,32,12,29.84,29.77,29.72,10,10,9,21,7,28,0.00,5,,221
2013-5-6,85,75,64,46,44,41,52,37,22,29.96,29.89,29.84,10,10,10,24,10,33,0.00,1,,303
2013-5-7,82,73,64,45,41,37,48,36,23,29.99,29.93,29.88,10,10,10,20,10,28,0.00,3,,295
2013-5-8,83,72,61,45,38,31,46,31,16,30.03,29.96,29.91,10,10,10,13,6,20,0.00,4,,283
2013-5-9,87,74,61,45,40,29,52,33,13,29.99,29.93,29.86,10,10,10,14,7,18,0.00,2,,260
2013-5-10,96,79,62,48,43,33,52,32,12,29.98,29.93,29.88,10,10,10,14,5,17,0.00,2,,241
2013-5-11,102,86,69,45,36,26,36,22,7,29.99,29.94,29.89,10,10,10,17,7,22,0.00,1,,86
2013-5-12,105,89,73,38,33,25,25,16,6,30.01,29.93,29.84,10,10,10,10,4,15,0.00,0,,19
2013-5-13,105,90,74,42,34,24,33,20,6,29.93,29.85,29.77,10,10,10,16,4,22,0.00,0,,257
2013-5-14,104,90,76,51,40,34,40,25,9,29.87,29.81,29.73,10,10,10,23,9,26,0.00,2,,192
2013-5-15,101,86,71,55,42,28,53,31,8,29.90,29.82,29.73,10,10,10,16,6,23,0.00,1,,220
2013-5-16,101,86,70,49,40,28,44,26,8,29.81,29.75,29.66,10,10,10,20,9,24,0.00,1,,182
2013-5-17,94,82,69,44,38,32,38,25,12,29.83,29.79,29.74,10,10,10,20,7,26,0.00,4,,246
2013-5-18,92,79,66,46,41,33,45,29,13,29.90,29.84,29.78,10,10,10,15,7,17,0.00,0,,257
2013-5-19,96,83,69,53,42,34,57,35,12,29.86,29.80,29.73,10,10,6,12,6,20,0.00,0,,199
2013-5-20,98,84,70,48,33,21,44,26,7,29.87,29.82,29.78,10,9,5,24,8,31,0.00,2,,5
2013-5-21,101,84,66,45,30,18,28,17,5,29.83,29.76,29.66,10,10,10,15,4,17,0.00,5,,215
2013-5-22,103,87,71,40,30,13,28,17,5,29.70,29.64,29.55,10,10,10,20,6,23,0.00,1,,208
2013-5-23,96,84,71,29,18,11,18,12,5,29.77,29.72,29.67,10,10,10,15,5,18,0.00,0,,293
2013-5-24,96,81,65,55,36,26,43,26,9,29.86,29.80,29.75,10,10,8,14,5,17,0.00,1,,193
2013-5-25,98,84,69,59,34,18,66,37,7,29.88,29.82,29.75,10,10,10,14,5,16,0.00,2,,213
2013-5-26,94,81,68,37,27,16,32,19,6,29.91,29.84,29.78,10,10,10,13,5,16,0.00,5,,256
2013-5-27,96,85,73,44,36,28,26,18,9,29.83,29.76,29.67,10,10,10,15,6,21,0.00,3,,264
2013-5-28,97,82,67,46,41,39,35,25,14,29.68,29.63,29.53,10,10,10,16,7,22,0.00,2,,236
2013-5-29,99,84,69,52,47,42,47,32,17,29.71,29.64,29.58,10,10,10,21,8,25,0.00,0,,192
2013-5-30,96,85,73,60,53,51,53,38,23,29.77,29.72,29.66,10,10,10,21,13,26,0.00,0,,166
2013-5-31,100,87,74,60,52,46,60,39,17,29.82,29.76,29.70,10,10,7,15,7,17,0.00,0,,179